KAIZ/AIZ METAR and TAF weather

Enter ICAO airport designator
Station Type Date Time Source
KAIZ METAR 2019/02/23 22:56 UTC NOAA

KAIZ 232256Z AUTO 22012G22KT 10SM SCT047 BKN060 17/08 A2949 RMK AO2 PK WND 23027/2242 SLP984 T01720083


Station Type Date Time Source
KAIZ Decoded METAR 2019/02/23 22:56 UTC NOAA

Kaiser Lake Ozark, Lee C Fine Memorial Airport, MO, United States (KAIZ) 38-06N 092-33W
Feb 23, 2019 - 05:56 PM EST / 2019.02.23 2256 UTC
Wind: from the SW (220 degrees) at 14 MPH (12 KT) gusting to 25 MPH (22 KT):0
Visibility: 10 mile(s):0
Sky conditions: mostly cloudy
Temperature: 63.0 F (17.2 C)
Dew Point: 46.9 F (8.3 C)
Relative Humidity: 55%
Pressure (altimeter): 29.49 in. Hg (998 hPa)
ob: KAIZ 232256Z AUTO 22012G22KT 10SM SCT047 BKN060 17/08 A2949 RMK AO2 PK WND 23027/2242 SLP984 T01720083
cycle: 23

Station Type Date Time Source
KAIZ TAF UTC NOAA

Error!


Example: see airport list